CW9763 Weather Reports


Display with metric or nautical units.
time (UTC)temp
F
wind
direction
speed
MPH
gust
MPH
rain 1hr
in
rain 24hr
in
rain mn
in
humidity
%
barometer
mb
20210728054344 89 252 4.0 7.0 0.00 0.00 0.00 28 1016.9
20210728053353 89 236 4.0 7.0 0.00 0.00 0.00 28 1016.9
20210728052327 89 252 4.0 8.0 0.00 0.00 0.00 28 1016.9
20210728051329 89 234 3.0 5.0 0.00 0.00 0.00 28 1017.0
20210728050325 89 247 4.0 8.0 0.00 0.00 0.00 28 1016.9
20210728045327 90 248 5.0 8.0 0.00 0.00 0.00 28 1016.8
20210728044332 90 245 7.0 9.0 0.00 0.00 0.00 28 1016.6
20210728043329 90 239 6.0 10.0 0.00 0.00 0.00 28 1016.6
20210728042332 90 234 5.0 13.0 0.00 0.00 0.00 28 1016.5
20210728041338 90 257 5.0 10.0 0.00 0.00 0.00 28 1016.4
20210728040330 91 229 4.0 12.0 0.00 0.00 0.00 28 1016.3
20210728035336 91 215 6.0 13.0 0.00 0.00 0.00 28 1016.2
20210728034341 91 224 7.0 10.0 0.00 0.00 0.00 28 1016.1
20210728033343 92 202 6.0 10.0 0.00 0.00 0.00 27 1015.9
20210728032349 92 244 8.0 12.0 0.00 0.00 0.00 27 1015.9
20210728031325 93 248 8.0 12.0 0.00 0.00 0.00 27 1015.9
20210728030346 93 222 8.0 12.0 0.00 0.00 0.00 26 1015.7
20210728025348 94 205 9.0 15.0 0.00 0.00 0.00 24 1015.5
20210728024338 94 222 12.0 19.0 0.00 0.00 0.00 23 1015.3
20210728023324 95 168 11.0 17.0 0.00 0.00 0.00 23 1015.2
20210728022343 96 194 11.0 19.0 0.00 0.00 0.00 23 1015.1
20210728021347 97 175 10.0 15.0 0.00 0.00 0.00 20 1014.9
20210728020339 97 213 9.0 15.0 0.00 0.00 0.00 18 1014.7
20210728015338 98 198 10.0 14.0 0.00 0.00 0.00 17 1014.8
20210728014342 99 209 8.0 13.0 0.00 0.00 0.00 16 1014.7
20210728013331 101 257 6.0 12.0 0.00 0.00 0.00 15 1014.8
20210728012335 102 219 10.0 16.0 0.00 0.00 0.00 14 1014.8
20210728011340 102 185 12.0 20.0 0.00 0.00 0.00 13 1014.7
20210728010335 103 150 8.0 12.0 0.00 0.00 0.00 14 1014.8
20210728005339 103 186 5.0 14.0 0.00 0.00 0.00 13 1014.7
20210728004339 103 137 6.0 11.0 0.00 0.00 0.00 14 1014.8
20210728003345 103 215 7.0 16.0 0.00 0.00 0.00 14 1015.0
20210728002337 103 200 7.0 16.0 0.00 0.00 0.00 14 1015.1
20210728001342 103 153 7.0 15.0 0.00 0.00 0.00 15 1015.1
20210728000346 102 186 7.0 10.0 0.00 0.00 0.00 14 1015.4
20210727235339 102 205 12.0 17.0 0.00 0.00 0.00 15 1015.5
20210727234343 102 187 10.0 18.0 0.00 0.00 0.00 16 1015.5
20210727233342 102 199 11.0 15.0 0.00 0.00 0.00 17 1015.6
20210727232344 102 204 13.0 18.0 0.00 0.00 0.00 16 1015.6
20210727231340 102 235 7.0 17.0 0.00 0.00 0.00 19 1015.7
20210727230340 102 187 10.0 17.0 0.00 0.00 0.00 18 1015.8
20210727225343 103 138 9.0 15.0 0.00 0.00 0.00 19 1016.0
20210727224333 103 161 2.0 12.0 0.00 0.00 0.00 19 1016.2
20210727223340 102 202 6.0 11.0 0.00 0.00 0.00 20 1016.4
20210727222347 101 126 2.0 11.0 0.00 0.00 0.00 21 1016.5
20210727221348 101 252 8.0 14.0 0.00 0.00 0.00 22 1016.7
20210727220341 99 101 4.0 8.0 0.00 0.00 0.00 22 1016.7
20210727215342 99 161 6.0 15.0 0.00 0.00 0.00 23 1016.9
20210727214348 100 346 5.0 9.0 0.00 0.00 0.00 21 1016.9
20210727213323 102 219 6.0 12.0 0.00 0.00 0.00 20 1017.1
20210727212324 101 136 6.0 14.0 0.00 0.00 0.00 20 1017.1
20210727211333 101 134 3.0 10.0 0.00 0.00 0.00 20 1017.2
20210727210333 102 153 6.0 15.0 0.00 0.00 0.00 20 1017.4
20210727205337 100 232 8.0 14.0 0.00 0.00 0.00 24 1017.4
20210727204333 98 123 6.0 10.0 0.00 0.00 0.00 24 1017.6
20210727203337 97 239 3.0 7.0 0.00 0.00 0.00 30 1017.6
20210727202329 97 331 5.0 9.0 0.00 0.00 0.00 31 1017.8
20210727201327 96 65 5.0 12.0 0.00 0.00 0.00 32 1018.0
20210727200332 95 85 7.0 13.0 0.00 0.00 0.00 33 1018.0
20210727195334 95 15 4.0 8.0 0.00 0.01 0.00 33 1018.1
20210727194325 94 61 6.0 12.0 0.00 0.01 0.00 34 1018.2
20210727193329 95 20 4.0 11.0 0.00 0.01 0.00 34 1018.2
20210727192329 94 98 8.0 15.0 0.00 0.01 0.00 34 1018.4
20210727191334 94 24 6.0 9.0 0.00 0.01 0.00 36 1018.6
20210727190326 93 92 5.0 13.0 0.00 0.01 0.00 37 1018.7
20210727185333 94 68 7.0 10.0 0.00 0.01 0.00 37 1018.7
20210727184333 92 30 4.0 13.0 0.00 0.01 0.00 38 1018.9
20210727183329 93 44 6.0 13.0 0.00 0.01 0.00 38 1018.8
20210727182333 93 120 2.0 6.0 0.00 0.01 0.00 38 1019.0
20210727181333 91 113 5.0 9.0 0.00 0.01 0.00 39 1019.2
20210727180341 90 51 5.0 10.0 0.00 0.01 0.00 42 1019.3
20210727175332 89 107 3.0 9.0 0.00 0.01 0.00 43 1019.4
20210727174338 89 63 6.0 10.0 0.00 0.01 0.00 44 1019.4
20210727173342 88 76 6.0 9.0 0.00 0.01 0.00 45 1019.3
20210727172331 87 117 5.0 8.0 0.00 0.01 0.00 46 1019.3
20210727171335 87 48 4.0 8.0 0.00 0.01 0.00 48 1019.2
20210727170337 87 88 4.0 6.0 0.00 0.01 0.00 50 1019.3
20210727165334 85 94 2.0 6.0 0.00 0.01 0.00 52 1019.3
20210727164339 84 55 2.0 6.0 0.00 0.01 0.00 54 1019.3
20210727163339 84 55 4.0 9.0 0.00 0.01 0.00 54 1019.3
20210727162345 83 73 3.0 5.0 0.00 0.01 0.00 56 1019.4
20210727161332 82 68 4.0 6.0 0.00 0.01 0.00 57 1019.4
20210727160338 83 65 2.0 6.0 0.00 0.01 0.00 57 1019.5
20210727155338 83 201 1.0 4.0 0.00 0.01 0.00 57 1019.4
20210727154333 82 179 1.0 3.0 0.00 0.01 0.00 58 1019.5
20210727153340 81 175 1.0 3.0 0.00 0.01 0.00 60 1019.5
20210727152342 80 184 1.0 2.0 0.00 0.01 0.00 62 1019.4
20210727151349 79 184 0.0 2.0 0.00 0.01 0.00 63 1019.3
20210727150334 78 184 1.0 2.0 0.00 0.01 0.00 64 1019.2
20210727145335 77 184 2.0 5.0 0.00 0.01 0.00 65 1019.0
20210727144342 75 184 3.0 5.0 0.00 0.01 0.00 66 1019.0
20210727143336 74 184 4.0 5.0 0.00 0.01 0.00 68 1019.0
20210727142343 73 128 4.0 5.0 0.00 0.01 0.00 70 1018.9
20210727141329 71 128 3.0 5.0 0.00 0.01 0.00 72 1018.9
20210727140342 70 123 4.0 6.0 0.00 0.01 0.00 74 1018.7
20210727135328 68 121 4.0 6.0 0.00 0.01 0.00 75 1018.7
20210727134330 67 121 4.0 6.0 0.00 0.01 0.00 77 1018.6
20210727133352 67 121 4.0 6.0 0.00 0.01 0.00 78 1018.6
20210727132343 66 121 3.0 6.0 0.00 0.01 0.00 78 1018.6
20210727131328 66 121 4.0 6.0 0.00 0.01 0.00 78 1018.5
20210727130323 66 121 4.0 6.0 0.00 0.01 0.00 78 1018.4
20210727125323 66 121 4.0 6.0 0.00 0.01 0.00 78 1018.3
20210727124328 66 121 4.0 6.0 0.00 0.01 0.00 77 1018.2
20210727123350 66 121 4.0 6.0 0.00 0.01 0.00 77 1018.0
20210727122326 67 121 4.0 6.0 0.00 0.01 0.00 77 1018.1
20210727121333 67 121 5.0 6.0 0.00 0.01 0.00 77 1018.1
20210727120323 67 121 5.0 6.0 0.00 0.01 0.00 77 1018.0
20210727115330 67 121 4.0 4.0 0.00 0.01 0.00 77 1018.1
20210727114333 67 121 4.0 6.0 0.00 0.01 0.00 77 1018.1
20210727113340 67 121 4.0 4.0 0.00 0.01 0.00 77 1018.0
20210727112337 67 121 4.0 6.0 0.00 0.01 0.00 77 1018.0
20210727111341 67 121 4.0 7.0 0.00 0.01 0.00 77 1017.9
20210727110346 68 109 4.0 6.0 0.00 0.01 0.00 76 1017.8
20210727105350 68 109 4.0 4.0 0.00 0.01 0.00 76 1017.8
20210727104330 68 109 3.0 6.0 0.00 0.01 0.00 77 1017.8
20210727103336 68 109 4.0 6.0 0.00 0.01 0.00 76 1017.7
20210727102329 68 109 4.0 6.0 0.00 0.01 0.00 75 1017.6
20210727101337 68 109 4.0 6.0 0.00 0.01 0.00 74 1017.6
20210727100340 68 109 3.0 4.0 0.00 0.01 0.00 74 1017.6
20210727095347 69 109 3.0 4.0 0.00 0.01 0.00 73 1017.6
20210727094324 69 109 3.0 6.0 0.00 0.01 0.00 73 1017.6
20210727093326 69 109 5.0 6.0 0.00 0.01 0.00 73 1017.5
20210727092351 69 98 4.0 6.0 0.00 0.01 0.00 72 1017.6
20210727091342 70 98 4.0 6.0 0.00 0.01 0.00 71 1017.6
20210727090329 70 89 4.0 6.0 0.00 0.01 0.00 71 1017.7
20210727085352 70 86 3.0 4.0 0.00 0.01 0.00 71 1017.7
20210727084329 71 86 0.0 0.0 0.00 0.01 0.00 73 1017.8
20210727083333 71 86 0.0 0.0 0.00 0.01 0.00 73 1018.0
20210727082334 71 86 0.0 2.0 0.00 0.01 0.00 73 1018.0
20210727081329 72 86 0.0 0.0 0.00 0.01 0.00 71 1018.1
20210727080331 72 86 0.0 2.0 0.00 0.01 0.00 71 1018.1
20210727075338 72 86 1.0 2.0 0.00 0.01 0.00 70 1018.0
20210727074332 72 86 2.0 3.0 0.00 0.01 0.00 71 1018.0
20210727073332 73 86 1.0 3.0 0.00 0.01 0.00 73 1017.9
20210727072335 73 86 3.0 3.0 0.00 0.01 0.00 73 1017.9
20210727071328 73 86 3.0 4.0 0.00 0.01 0.00 71 1017.9
20210727070347 73 79 3.0 4.0 0.00 0.01 0.00 68 1018.0
20210727065337 73 76 2.0 3.0 0.00 0.01 0.01 68 1018.0
20210727064324 74 76 3.0 3.0 0.00 0.01 0.01 67 1018.0
20210727063350 74 76 2.0 4.0 0.00 0.01 0.01 67 1018.0
20210727062342 74 76 3.0 4.0 0.00 0.01 0.01 67 1018.0
20210727061327 75 53 0.0 0.0 0.00 0.01 0.01 69 1017.8
20210727060332 75 53 1.0 1.0 0.00 0.01 0.01 68 1017.9
20210727055326 75 53 1.0 2.0 0.00 0.01 0.01 68 1017.8